Time;durP1;ratioP1;P1;durP2;ratioP2;P2;SDS_P1;SDS_P2;PMS_P1;PMS_P2;Temp;Humidity;BMP_temperature;BMP_pressure;BME280_temperature;BME280_humidity;BME280_pressure;Samples;Min_cycle;Max_cycle;Signal;HPM_P1;HPM_P2
2023/08/26 00:01:48;;;;;;;;;;;;;;;30.66;42.68;93947.78;4987027;28;9021;-56
2023/08/26 00:04:16;;;;;;;;;;;;;;;30.67;42.25;93954.81;4993242;28;7065;-56
2023/08/26 00:06:51;;;;;;;;;;;;;;;30.65;42.60;93943.50;4991792;28;7210;-55
2023/08/26 00:09:19;;;;;;;;;;;;;;;30.65;42.58;93935.19;4983687;28;8776;-56
2023/08/26 00:11:45;;;;;;;;;;;;;;;30.66;42.37;93939.44;4982196;28;7198;-55
2023/08/26 00:14:17;;;;;;;;;;;;;;;30.66;42.48;93908.91;5007039;28;7240;-56
2023/08/26 00:16:44;;;;;;;;;;;;;;;30.69;42.27;93927.25;5002125;28;8995;-56
2023/08/26 00:19:16;;;;;;;;;;;;;;;30.70;42.41;93937.03;4988794;28;9033;-56
2023/08/26 00:21:43;;;;;;;;;;;;;;;30.67;41.82;93938.16;4986468;28;7025;-55
2023/08/26 00:24:09;;;;;;;;;;;;;;;30.64;42.32;93934.47;4989320;28;6986;-56
2023/08/26 00:26:36;;;;;;;;;;;;;;;30.62;42.07;93930.75;5007851;28;9067;-55
2023/08/26 00:29:04;;;;;;;;;;;;;;;30.64;42.12;93930.94;4989319;28;7256;-56
2023/08/26 00:31:32;;;;;;;;;;;;;;;30.63;42.05;93930.19;4989786;28;7297;-55
2023/08/26 00:34:02;;;;;;;;;;;;;;;30.62;41.71;93936.31;5001288;28;9243;-55
2023/08/26 00:36:48;;;;;;;;;;;;;;;30.58;42.88;93936.66;4981957;28;9124;-56
2023/08/26 00:39:16;;;;;;;;;;;;;;;30.57;41.76;93942.78;5002577;28;7281;-55
2023/08/26 00:41:48;;;;;;;;;;;;;;;30.55;42.12;93946.09;4998904;28;7403;-55
2023/08/26 00:44:18;;;;;;;;;;;;;;;30.58;41.96;93955.38;4988288;28;7262;-55
2023/08/26 00:46:46;;;;;;;;;;;;;;;30.58;42.29;93955.38;4990995;28;7266;-56
2023/08/26 00:49:43;;;;;;;;;;;;;;;30.54;42.48;93956.47;4992840;28;9084;-56
2023/08/26 00:52:10;;;;;;;;;;;;;;;30.52;43.23;93949.97;4966056;28;7060;-55
2023/08/26 00:54:36;;;;;;;;;;;;;;;30.58;42.94;93952.59;4955391;28;7248;-56
2023/08/26 00:57:06;;;;;;;;;;;;;;;30.57;42.67;93953.88;4984923;28;9402;-56
2023/08/26 00:59:32;;;;;;;;;;;;;;;30.57;42.61;93953.88;4966981;28;9065;-56
2023/08/26 01:02:03;;;;;;;;;;;;;;;30.54;42.42;93961.28;4942548;28;7334;-56
2023/08/26 01:04:29;;;;;;;;;;;;;;;30.50;42.67;93947.78;4956808;28;7037;-55
2023/08/26 01:06:58;;;;;;;;;;;;;;;30.52;42.68;93949.97;4960727;28;7046;-56
2023/08/26 01:09:25;;;;;;;;;;;;;;;30.51;42.34;93954.78;4973167;28;7042;-56
2023/08/26 01:12:23;;;;;;;;;;;;;;;30.51;42.54;93951.28;4957607;28;7481;-56
2023/08/26 01:15:15;;;;;;;;;;;;;;;30.51;41.99;93960.34;4967292;28;7505;-55
2023/08/26 01:17:41;;;;;;;;;;;;;;;30.47;43.09;93954.41;4951392;28;7536;-55
2023/08/26 01:20:28;;;;;;;;;;;;;;;30.50;42.15;93961.66;4954815;28;6975;-56
2023/08/26 01:22:58;;;;;;;;;;;;;;;30.50;43.07;93963.69;4952153;28;9108;-56
2023/08/26 01:25:24;;;;;;;;;;;;;;;30.49;42.00;93968.47;4951850;28;8588;-55
2023/08/26 01:27:55;;;;;;;;;;;;;;;30.49;42.67;93965.00;4970007;28;9206;-56
2023/08/26 01:30:28;;;;;;;;;;;;;;;30.49;42.25;93962.22;4985012;28;7470;-56
2023/08/26 01:33:22;;;;;;;;;;;;;;;30.48;42.11;93963.50;5000891;28;7073;-56
2023/08/26 01:36:23;;;;;;;;;;;;;;;30.47;42.75;93964.81;4992474;28;8459;-56
2023/08/26 01:39:03;;;;;;;;;;;;;;;30.44;41.83;93966.66;4930559;28;7292;-56
2023/08/26 01:41:32;;;;;;;;;;;;;;;30.45;42.17;93970.88;4951829;28;7326;-55
2023/08/26 01:44:15;;;;;;;;;;;;;;;30.43;42.02;93967.91;4933924;28;7083;-55
2023/08/26 01:46:50;;;;;;;;;;;;;;;30.43;42.43;93973.47;4927816;28;9055;-56
2023/08/26 01:49:27;;;;;;;;;;;;;;;30.42;43.19;93979.59;4951986;28;7176;-55
2023/08/26 01:51:54;;;;;;;;;;;;;;;30.42;42.83;93977.56;4949914;28;9455;-55
2023/08/26 01:54:52;;;;;;;;;;;;;;;30.43;42.69;93987.34;4930811;28;9192;-56
2023/08/26 01:57:27;;;;;;;;;;;;;;;30.42;42.51;93985.88;4912569;29;7932;-56
2023/08/26 02:00:05;;;;;;;;;;;;;;;30.43;43.04;93986.59;4908968;29;7191;-55
2023/08/26 02:02:31;;;;;;;;;;;;;;;30.41;41.73;93987.16;4894961;29;6997;-56
2023/08/26 02:05:30;;;;;;;;;;;;;;;30.41;41.78;94000.28;4903110;29;7064;-55
2023/08/26 02:08:05;;;;;;;;;;;;;;;30.40;42.79;93994.03;4822249;29;7354;-55
2023/08/26 02:10:32;;;;;;;;;;;;;;;30.41;42.05;94003.06;4805587;29;7564;-56
2023/08/26 02:13:00;;;;;;;;;;;;;;;30.40;42.01;94004.38;4821260;29;7555;-56
2023/08/26 02:16:13;;;;;;;;;;;;;;;30.40;42.26;94005.13;4833731;29;6991;-62
2023/08/26 02:18:39;;;;;;;;;;;;;;;30.39;42.80;94003.63;4852201;29;7480;-61
2023/08/26 02:21:21;;;;;;;;;;;;;;;30.40;42.01;94015.47;4850551;29;8740;-62
2023/08/26 02:24:06;;;;;;;;;;;;;;;30.34;43.06;94015.63;4843408;29;7226;-62
2023/08/26 02:27:02;;;;;;;;;;;;;;;30.37;42.97;94011.03;4856435;29;7197;-61
2023/08/26 02:29:38;;;;;;;;;;;;;;;30.35;42.34;94014.34;4819731;29;7141;-62
2023/08/26 02:32:21;;;;;;;;;;;;;;;30.35;42.53;94019.16;4809806;29;7257;-62
2023/08/26 02:35:06;;;;;;;;;;;;;;;30.32;42.48;94023.78;4822833;29;7236;-61
2023/08/26 02:37:37;;;;;;;;;;;;;;;30.33;42.82;94030.81;4833340;29;7177;-62
2023/08/26 02:40:06;;;;;;;;;;;;;;;30.31;42.34;94033.41;4823402;29;7443;-61
2023/08/26 02:42:35;;;;;;;;;;;;;;;30.32;43.08;94039.69;4820874;29;9141;-62
2023/08/26 02:45:04;;;;;;;;;;;;;;;30.32;42.50;94043.19;4856483;29;9474;-61
2023/08/26 02:47:41;;;;;;;;;;;;;;;30.32;42.28;94023.06;4878633;29;7271;-61
2023/08/26 02:50:08;;;;;;;;;;;;;;;30.30;43.05;94023.56;4881065;29;9073;-61
2023/08/26 02:52:44;;;;;;;;;;;;;;;30.33;42.26;94021.75;4896215;29;9474;-61
2023/08/26 02:55:56;;;;;;;;;;;;;;;30.33;43.20;94016.94;4885081;29;9096;-62
2023/08/26 02:58:23;;;;;;;;;;;;;;;30.33;42.50;94021.75;4936133;28;9582;-62
2023/08/26 03:01:00;;;;;;;;;;;;;;;30.27;42.29;94005.25;4949948;28;8814;-62
2023/08/26 03:03:44;;;;;;;;;;;;;;;30.31;43.23;94008.44;4933419;28;7198;-62
2023/08/26 03:06:19;;;;;;;;;;;;;;;30.30;42.70;94018.00;4973996;28;8801;-62
2023/08/26 03:08:49;;;;;;;;;;;;;;;30.27;42.24;94010.81;4999647;28;7414;-62
2023/08/26 03:11:24;;;;;;;;;;;;;;;30.28;43.19;94009.50;4994076;28;7197;-62
2023/08/26 03:13:50;;;;;;;;;;;;;;;30.30;42.41;94018.00;5000403;28;6960;-62
2023/08/26 03:16:48;;;;;;;;;;;;;;;30.30;42.53;94029.09;4993708;28;9095;-61
2023/08/26 03:19:18;;;;;;;;;;;;;;;30.27;43.72;94026.69;4956566;28;7261;-62
2023/08/26 03:21:52;;;;;;;;;;;;;;;30.30;43.26;94029.09;4968978;28;7368;-62
2023/08/26 03:24:19;;;;;;;;;;;;;;;30.28;42.94;94025.38;4950273;28;7880;-62
2023/08/26 03:26:51;;;;;;;;;;;;;;;30.29;42.94;94011.00;4960650;28;7709;-62
2023/08/26 03:29:17;;;;;;;;;;;;;;;30.26;42.62;94028.72;4965201;28;9035;-61
2023/08/26 03:31:47;;;;;;;;;;;;;;;30.25;43.27;94021.72;4944613;28;6987;-62
2023/08/26 03:34:17;;;;;;;;;;;;;;;30.26;42.76;94025.19;4945613;28;9221;-61
2023/08/26 03:36:52;;;;;;;;;;;;;;;30.25;42.67;94032.81;4926789;29;9068;-61
2023/08/26 03:39:19;;;;;;;;;;;;;;;30.26;43.29;94034.28;4910203;29;7484;-61
2023/08/26 03:41:46;;;;;;;;;;;;;;;30.25;42.60;94037.59;4930489;29;7240;-61
2023/08/26 03:44:21;;;;;;;;;;;;;;;30.24;43.31;94031.31;4916950;29;8943;-61
2023/08/26 03:46:49;;;;;;;;;;;;;;;30.26;42.91;94037.03;4934995;29;6963;-61
2023/08/26 03:49:20;;;;;;;;;;;;;;;30.24;43.52;94027.78;4918087;29;7247;-61
2023/08/26 03:51:48;;;;;;;;;;;;;;;30.19;42.89;94023.88;4932853;29;7268;-61
2023/08/26 03:54:14;;;;;;;;;;;;;;;30.18;43.18;94025.19;4945133;28;9114;-61
2023/08/26 03:56:42;;;;;;;;;;;;;;;30.15;42.68;94015.19;5001955;28;7026;-60
2023/08/26 03:59:18;;;;;;;;;;;;;;;30.18;43.31;94033.53;4992695;28;7148;-60
2023/08/26 04:01:44;;;;;;;;;;;;;;;30.17;43.02;94031.28;4993926;28;9161;-60
2023/08/26 04:04:19;;;;;;;;;;;;;;;30.14;43.26;94027.59;4990926;28;6978;-61
2023/08/26 04:06:57;;;;;;;;;;;;;;;30.14;43.80;94021.28;4993940;28;8707;-61
2023/08/26 04:09:24;;;;;;;;;;;;;;;30.16;43.96;94019.47;4998180;28;7209;-61
2023/08/26 04:12:11;;;;;;;;;;;;;;;30.14;43.37;94021.28;4997256;28;6985;-61
2023/08/26 04:14:37;;;;;;;;;;;;;;;30.14;43.73;94027.59;5005125;28;7420;-61
2023/08/26 04:17:24;;;;;;;;;;;;;;;30.14;42.89;94030.38;5003572;28;7258;-61
2023/08/26 04:19:52;;;;;;;;;;;;;;;30.12;43.84;94024.63;4985331;28;8885;-61
2023/08/26 04:22:29;;;;;;;;;;;;;;;30.15;42.57;94017.97;4995469;28;7230;-61
2023/08/26 04:24:57;;;;;;;;;;;;;;;30.11;42.81;94017.59;4995453;28;9087;-61
2023/08/26 04:27:33;;;;;;;;;;;;;;;30.14;42.92;94013.72;4991483;28;7216;-60
2023/08/26 04:30:01;;;;;;;;;;;;;;;30.15;42.89;94017.22;4991272;28;7978;-61
2023/08/26 04:32:27;;;;;;;;;;;;;;;30.17;43.18;94014.63;4991932;28;7012;-61
2023/08/26 04:34:54;;;;;;;;;;;;;;;30.14;43.26;94002.63;4994069;28;9087;-61
2023/08/26 04:37:36;;;;;;;;;;;;;;;30.12;43.12;93994.13;4993787;28;7252;-62
2023/08/26 04:40:42;;;;;;;;;;;;;;;30.08;42.49;93996.47;4993782;28;8414;-61
2023/08/26 04:43:19;;;;;;;;;;;;;;;30.01;43.61;93985.38;5023516;28;7014;-61
2023/08/26 04:45:58;;;;;;;;;;;;;;;30.02;42.91;93997.94;5007381;28;8789;-62
2023/08/26 04:48:39;;;;;;;;;;;;;;;29.97;43.31;93998.88;4993466;28;7058;-62
2023/08/26 04:51:16;;;;;;;;;;;;;;;29.96;43.30;94000.16;4995226;28;7268;-62
2023/08/26 04:53:42;;;;;;;;;;;;;;;30.00;42.55;93998.50;4994439;28;7093;-61
2023/08/26 04:56:13;;;;;;;;;;;;;;;30.01;43.03;93993.69;4992786;28;9120;-62
2023/08/26 04:58:41;;;;;;;;;;;;;;;30.01;42.07;93994.44;4995434;28;7396;-62
2023/08/26 05:01:10;;;;;;;;;;;;;;;30.02;42.92;93998.69;5008667;28;8775;-62
2023/08/26 05:03:37;;;;;;;;;;;;;;;29.97;42.02;93996.09;4991417;28;7421;-62
2023/08/26 05:06:03;;;;;;;;;;;;;;;30.00;42.06;93995.72;4984898;28;7541;-62
2023/08/26 05:08:33;;;;;;;;;;;;;;;30.00;42.35;94001.28;4994872;28;7574;-61
2023/08/26 05:10:59;;;;;;;;;;;;;;;29.96;42.08;93998.13;4989710;28;8772;-62
2023/08/26 05:13:28;;;;;;;;;;;;;;;29.98;42.86;93992.75;4985996;28;9138;-62
2023/08/26 05:15:59;;;;;;;;;;;;;;;29.93;42.85;93979.78;4994666;28;7265;-62
2023/08/26 05:18:50;;;;;;;;;;;;;;;29.93;42.82;93988.13;4979070;28;7514;-61
2023/08/26 05:21:16;;;;;;;;;;;;;;;29.94;42.22;93988.88;4985267;28;9140;-61
2023/08/26 05:23:44;;;;;;;;;;;;;;;29.93;41.93;93974.25;4981039;28;6977;-61
2023/08/26 05:26:10;;;;;;;;;;;;;;;29.96;42.26;93981.47;4990993;28;7311;-62
2023/08/26 05:28:36;;;;;;;;;;;;;;;29.97;42.70;93974.63;4987512;28;7293;-61
2023/08/26 05:31:03;;;;;;;;;;;;;;;29.97;42.02;93968.38;4996853;28;7412;-61
2023/08/26 05:33:32;;;;;;;;;;;;;;;29.95;41.97;93977.22;5019340;28;9053;-61
2023/08/26 05:35:58;;;;;;;;;;;;;;;29.92;42.41;93986.66;4979514;28;9388;-61
2023/08/26 05:38:34;;;;;;;;;;;;;;;29.93;43.01;93990.16;4990057;28;7250;-61
2023/08/26 05:41:00;;;;;;;;;;;;;;;29.92;42.80;93988.66;4987225;28;9522;-61
2023/08/26 05:43:30;;;;;;;;;;;;;;;29.92;41.93;93989.41;4986479;28;8994;-61
2023/08/26 05:46:18;;;;;;;;;;;;;;;29.94;43.11;93997.94;4979619;28;7382;-61
2023/08/26 05:48:49;;;;;;;;;;;;;;;29.91;43.19;93996.25;4993132;28;6977;-62
2023/08/26 05:51:50;;;;;;;;;;;;;;;29.94;42.77;93992.38;4990067;28;7006;-62
2023/08/26 05:54:28;;;;;;;;;;;;;;;29.94;43.65;93997.94;4953064;28;7455;-62
2023/08/26 05:57:13;;;;;;;;;;;;;;;29.94;43.98;93999.94;4947166;28;7224;-62
2023/08/26 05:59:49;;;;;;;;;;;;;;;29.93;43.33;93999.22;4958967;28;7212;-62
2023/08/26 06:02:46;;;;;;;;;;;;;;;29.93;43.17;94007.53;4930967;28;8850;-62
2023/08/26 06:05:19;;;;;;;;;;;;;;;29.93;43.18;94013.06;4896895;29;7321;-61
2023/08/26 06:08:06;;;;;;;;;;;;;;;29.94;42.21;94017.34;4895113;29;9368;-62
2023/08/26 06:10:34;;;;;;;;;;;;;;;29.93;42.65;94012.34;4892519;29;9018;-62
2023/08/26 06:13:16;;;;;;;;;;;;;;;29.94;42.64;94020.13;4896078;29;7074;-62
2023/08/26 06:15:44;;;;;;;;;;;;;;;29.92;42.75;94022.69;4912340;29;7344;-61
2023/08/26 06:18:22;;;;;;;;;;;;;;;29.89;42.51;94012.69;4914112;29;7212;-61
2023/08/26 06:20:52;;;;;;;;;;;;;;;29.91;43.16;94017.69;4913836;29;7259;-61
2023/08/26 06:23:37;;;;;;;;;;;;;;;29.93;42.68;94010.31;4913502;29;7145;-61
2023/08/26 06:26:41;;;;;;;;;;;;;;;29.92;43.12;94003.28;4915081;29;7339;-61
2023/08/26 06:29:25;;;;;;;;;;;;;;;29.91;42.67;93996.25;4899521;28;8932;-61
2023/08/26 06:31:57;;;;;;;;;;;;;;;29.91;42.48;93990.69;4949298;28;8902;-61
2023/08/26 06:34:34;;;;;;;;;;;;;;;29.90;42.75;93978.13;4946973;28;7064;-62
2023/08/26 06:37:00;;;;;;;;;;;;;;;29.90;42.42;93980.16;4935785;28;7504;-62
2023/08/26 06:39:37;;;;;;;;;;;;;;;29.92;41.82;93985.91;4948333;28;8978;-62
2023/08/26 06:42:18;;;;;;;;;;;;;;;29.95;41.87;93966.13;4968356;28;6995;-62
2023/08/26 06:44:47;;;;;;;;;;;;;;;29.94;42.49;93961.88;4989763;28;7018;-62
2023/08/26 06:47:13;;;;;;;;;;;;;;;30.02;41.97;93964.66;4994041;28;7409;-62
2023/08/26 06:49:43;;;;;;;;;;;;;;;29.99;42.48;93960.97;4989538;28;8726;-62
2023/08/26 06:52:13;;;;;;;;;;;;;;;30.00;42.12;93962.44;5008376;28;7815;-61
2023/08/26 06:54:50;;;;;;;;;;;;;;;29.99;42.41;93960.97;4981849;28;7230;-55
2023/08/26 06:57:22;;;;;;;;;;;;;;;30.07;42.18;93961.72;5001181;28;7050;-55
2023/08/26 06:59:50;;;;;;;;;;;;;;;30.03;42.31;93966.91;4984965;28;7182;-55
2023/08/26 07:02:27;;;;;;;;;;;;;;;30.00;42.63;93970.75;4989167;28;9066;-54
2023/08/26 07:04:54;;;;;;;;;;;;;;;30.02;42.59;93965.41;4992651;28;7335;-54
2023/08/26 07:07:27;;;;;;;;;;;;;;;30.00;42.28;93968.00;4983554;28;9068;-54
2023/08/26 07:09:59;;;;;;;;;;;;;;;29.95;41.75;93977.22;5025208;28;6994;-53
2023/08/26 07:12:39;;;;;;;;;;;;;;;29.97;42.72;93977.41;4983936;28;7485;-54
2023/08/26 07:15:17;;;;;;;;;;;;;;;29.97;41.63;93973.91;4999193;28;9413;-54
2023/08/26 07:17:44;;;;;;;;;;;;;;;29.95;42.13;93974.44;4991624;28;7268;-53
2023/08/26 07:20:10;;;;;;;;;;;;;;;29.97;42.20;93976.69;4996005;28;8714;-54
2023/08/26 07:22:44;;;;;;;;;;;;;;;29.99;43.04;93983.16;4976849;28;7499;-54
2023/08/26 07:25:16;;;;;;;;;;;;;;;29.98;42.91;93990.00;4987829;28;9405;-54
2023/08/26 07:28:03;;;;;;;;;;;;;;;29.98;42.89;93990.00;5004399;28;7247;-54
2023/08/26 07:30:33;;;;;;;;;;;;;;;29.98;41.78;93978.91;4985208;28;7217;-54
2023/08/26 07:33:09;;;;;;;;;;;;;;;29.99;41.85;93963.75;4985341;28;7888;-54
2023/08/26 07:35:44;;;;;;;;;;;;;;;29.97;42.41;93969.09;4983792;28;6998;-54
2023/08/26 07:38:21;;;;;;;;;;;;;;;29.99;42.89;93972.06;5017590;28;6990;-54
2023/08/26 07:41:25;;;;;;;;;;;;;;;29.99;42.90;93976.88;4989093;28;7045;-55
2023/08/26 07:44:10;;;;;;;;;;;;;;;30.01;42.29;93966.72;4988878;28;7224;-55
2023/08/26 07:46:36;;;;;;;;;;;;;;;30.01;41.82;93966.72;5007083;28;9125;-55
2023/08/26 07:49:20;;;;;;;;;;;;;;;30.00;42.39;93979.09;4973486;28;7059;-54
2023/08/26 07:51:46;;;;;;;;;;;;;;;29.97;42.55;93990.53;4969412;28;7181;-55
2023/08/26 07:54:21;;;;;;;;;;;;;;;29.95;42.46;93991.06;4990676;28;7286;-55
2023/08/26 07:56:48;;;;;;;;;;;;;;;29.99;41.55;93996.28;4988623;28;7263;-55
2023/08/26 07:59:26;;;;;;;;;;;;;;;29.98;42.86;93992.75;4973628;28;7234;-55
2023/08/26 08:02:13;;;;;;;;;;;;;;;29.98;41.49;93992.75;4987833;28;9442;-55
2023/08/26 08:05:04;;;;;;;;;;;;;;;30.00;41.55;93987.41;4979369;28;7277;-55
2023/08/26 08:07:31;;;;;;;;;;;;;;;29.98;42.60;93992.00;5001855;28;7160;-55
2023/08/26 08:09:57;;;;;;;;;;;;;;;29.97;41.93;93990.53;4976559;28;8780;-55
2023/08/26 08:12:24;;;;;;;;;;;;;;;29.95;41.34;93987.59;4974940;28;7046;-55
2023/08/26 08:15:04;;;;;;;;;;;;;;;29.93;41.65;93982.56;4983541;28;7769;-56
2023/08/26 08:17:40;;;;;;;;;;;;;;;29.95;41.69;93988.31;4981822;28;7014;-55
2023/08/26 08:20:08;;;;;;;;;;;;;;;29.95;41.68;93976.50;4981908;28;7837;-55
2023/08/26 08:22:38;;;;;;;;;;;;;;;29.94;41.92;93981.28;4992428;28;8940;-55
2023/08/26 08:25:08;;;;;;;;;;;;;;;29.96;42.32;93978.72;5012902;28;6990;-55
2023/08/26 08:27:37;;;;;;;;;;;;;;;29.97;41.70;93985.00;5021971;28;7324;-55
2023/08/26 08:30:04;;;;;;;;;;;;;;;29.96;41.75;93987.03;5006395;28;8755;-55
2023/08/26 08:32:40;;;;;;;;;;;;;;;29.98;41.79;93978.16;4993805;28;7004;-55
2023/08/26 08:35:23;;;;;;;;;;;;;;;29.95;41.76;93971.66;4994315;28;9092;-55
2023/08/26 08:37:58;;;;;;;;;;;;;;;29.92;41.45;93981.09;4990935;28;7325;-56
2023/08/26 08:40:38;;;;;;;;;;;;;;;29.95;41.95;93977.22;4993377;28;7247;-56
2023/08/26 08:43:15;;;;;;;;;;;;;;;29.92;41.73;93983.13;4994507;28;7113;-56
2023/08/26 08:45:44;;;;;;;;;;;;;;;29.94;41.52;93986.84;4992900;28;8271;-56
2023/08/26 08:48:12;;;;;;;;;;;;;;;29.93;42.12;93977.03;4993782;28;8809;-56
2023/08/26 08:50:39;;;;;;;;;;;;;;;29.92;41.53;93975.56;4990366;28;8967;-56
2023/08/26 08:53:07;;;;;;;;;;;;;;;29.94;42.44;93984.06;4991135;28;7237;-56
2023/08/26 08:55:36;;;;;;;;;;;;;;;29.91;41.68;93974.06;5023185;28;8756;-56
2023/08/26 08:58:17;;;;;;;;;;;;;;;29.93;42.59;93976.31;4990225;28;9283;-56
2023/08/26 09:01:25;;;;;;;;;;;;;;;29.93;42.44;93979.78;4990089;28;9068;-55
2023/08/26 09:03:56;;;;;;;;;;;;;;;29.93;42.22;93971.47;4957431;28;9188;-55
2023/08/26 09:06:38;;;;;;;;;;;;;;;29.95;42.72;93982.03;4967949;28;8707;-55
2023/08/26 09:09:42;;;;;;;;;;;;;;;29.95;43.02;93966.13;4964150;28;9044;-55
2023/08/26 09:12:08;;;;;;;;;;;;;;;29.96;41.76;93961.31;4894003;29;9149;-55
2023/08/26 09:15:06;;;;;;;;;;;;;;;29.94;42.75;93948.00;4880314;29;6962;-57
2023/08/26 09:17:47;;;;;;;;;;;;;;;29.93;41.98;93945.81;4830068;29;7211;-57
2023/08/26 09:20:13;;;;;;;;;;;;;;;29.92;41.81;93925.63;4838923;29;8685;-57
2023/08/26 09:23:14;;;;;;;;;;;;;;;29.91;41.19;93931.72;4823756;29;7293;-57
2023/08/26 09:26:18;;;;;;;;;;;;;;;29.87;41.58;93932.09;4778312;29;7659;-57
2023/08/26 09:28:49;;;;;;;;;;;;;;;29.87;42.29;93929.31;4786487;29;7134;-57
2023/08/26 09:31:26;;;;;;;;;;;;;;;29.91;41.47;93921.38;4778302;29;6989;-56
2023/08/26 09:34:05;;;;;;;;;;;;;;;29.88;41.53;93922.50;4787782;29;9107;-57
2023/08/26 09:36:49;;;;;;;;;;;;;;;29.85;41.97;93922.84;4804303;29;8852;-57
2023/08/26 09:39:18;;;;;;;;;;;;;;;29.82;41.53;93910.09;4821662;29;7088;-57
2023/08/26 09:41:46;;;;;;;;;;;;;;;29.82;41.64;93912.88;4822474;29;7247;-57
2023/08/26 09:44:43;;;;;;;;;;;;;;;29.79;41.98;93909.91;4821448;29;9276;-57
2023/08/26 09:47:12;;;;;;;;;;;;;;;29.79;40.81;93920.25;4840423;29;7238;-57
2023/08/26 09:49:55;;;;;;;;;;;;;;;29.77;40.69;93920.06;4874048;29;7327;-57
2023/08/26 09:52:41;;;;;;;;;;;;;;;29.76;40.87;93927.63;4861948;29;8235;-57
2023/08/26 09:55:16;;;;;;;;;;;;;;;29.78;40.94;93927.81;4933136;28;7162;-57
2023/08/26 09:57:47;;;;;;;;;;;;;;;29.77;41.45;93918.03;4949260;28;6995;-57
2023/08/26 10:00:19;;;;;;;;;;;;;;;29.76;41.80;93911.00;4970136;28;7142;-57
2023/08/26 10:02:52;;;;;;;;;;;;;;;29.79;41.22;93904.34;4986046;28;7190;-57
2023/08/26 10:05:22;;;;;;;;;;;;;;;29.81;40.50;93906.56;4983286;28;8768;-57
2023/08/26 10:07:52;;;;;;;;;;;;;;;29.81;40.53;93909.34;4988124;28;8804;-57
2023/08/26 10:10:39;;;;;;;;;;;;;;;29.82;40.56;93918.41;4991029;28;8791;-57
2023/08/26 10:13:06;;;;;;;;;;;;;;;29.79;41.15;93948.72;4979563;28;9053;-57
2023/08/26 10:15:41;;;;;;;;;;;;;;;29.78;41.30;93980.50;4998431;28;6990;-57
2023/08/26 10:18:27;;;;;;;;;;;;;;;29.80;40.74;94000.09;4990447;28;7327;-58
2023/08/26 10:20:55;;;;;;;;;;;;;;;29.77;40.51;94017.09;4991284;28;7822;-57
2023/08/26 10:23:24;;;;;;;;;;;;;;;29.82;41.15;94027.25;4980352;28;7092;-57
2023/08/26 10:25:55;;;;;;;;;;;;;;;29.81;41.35;94045.19;4982254;28;7074;-58
2023/08/26 10:28:42;;;;;;;;;;;;;;;29.78;40.49;94035.19;4989068;28;7004;-57
2023/08/26 10:31:13;;;;;;;;;;;;;;;29.81;41.83;94045.19;5004101;28;6984;-58
2023/08/26 10:34:13;;;;;;;;;;;;;;;29.84;41.55;94046.84;4994350;28;7212;-57
2023/08/26 10:36:59;;;;;;;;;;;;;;;29.82;43.11;94045.94;4998538;28;7286;-57
2023/08/26 10:39:34;;;;;;;;;;;;;;;29.79;42.45;94036.69;4991776;28;7219;-57
2023/08/26 10:42:31;;;;;;;;;;;;;;;29.77;42.12;94022.63;4988466;28;9131;-57
2023/08/26 10:45:15;;;;;;;;;;;;;;;29.75;41.95;94014.84;4986468;28;9031;-57
2023/08/26 10:47:48;;;;;;;;;;;;;;;29.75;43.33;94009.28;4991605;28;9397;-57
2023/08/26 10:50:35;;;;;;;;;;;;;;;29.74;42.71;94004.31;4990959;28;6984;-57
2023/08/26 10:53:46;;;;;;;;;;;;;;;29.73;43.06;94003.53;4991109;28;9094;-57
2023/08/26 10:56:33;;;;;;;;;;;;;;;29.75;42.54;93983.63;5000987;28;9409;-57
2023/08/26 10:59:03;;;;;;;;;;;;;;;29.76;41.90;93983.06;4994676;28;6958;-57
2023/08/26 11:01:54;;;;;;;;;;;;;;;29.79;42.11;93992.31;4983599;28;7256;-57
2023/08/26 11:04:24;;;;;;;;;;;;;;;29.75;42.71;93994.72;4986317;28;7076;-57
2023/08/26 11:06:59;;;;;;;;;;;;;;;29.73;42.41;93997.28;4983166;28;8664;-57
2023/08/26 11:09:40;;;;;;;;;;;;;;;29.70;42.80;94001.13;4999703;28;7247;-57
2023/08/26 11:12:55;;;;;;;;;;;;;;;29.76;41.70;94016.34;5002801;28;6872;-56
2023/08/26 11:15:25;;;;;;;;;;;;;;;29.75;41.82;94036.31;4989290;28;7194;-56
2023/08/26 11:17:51;;;;;;;;;;;;;;;29.75;41.98;94053.66;4974586;28;7442;-56
2023/08/26 11:20:28;;;;;;;;;;;;;;;29.75;42.46;94044.63;4973771;28;6974;-57
2023/08/26 11:22:54;;;;;;;;;;;;;;;29.73;42.86;94025.72;4990933;28;9475;-57
2023/08/26 11:25:47;;;;;;;;;;;;;;;29.77;41.99;94019.84;4990007;28;7196;-57
2023/08/26 11:28:28;;;;;;;;;;;;;;;29.77;42.16;94028.19;4987473;28;7304;-57
2023/08/26 11:31:03;;;;;;;;;;;;;;;29.78;41.82;94024.09;4961928;28;8999;-57
2023/08/26 11:33:31;;;;;;;;;;;;;;;29.83;42.13;94028.75;4931999;29;7217;-57
2023/08/26 11:36:26;;;;;;;;;;;;;;;29.84;41.55;94027.44;4910411;29;7315;-63
2023/08/26 11:38:56;;;;;;;;;;;;;;;29.83;41.39;94039.84;4922620;29;7194;-63
2023/08/26 11:41:46;;;;;;;;;;;;;;;29.83;41.59;94045.38;4931670;29;9450;-62
2023/08/26 11:44:25;;;;;;;;;;;;;;;29.83;41.90;94045.38;4930707;29;7089;-62
2023/08/26 11:47:04;;;;;;;;;;;;;;;29.81;41.68;94039.66;4931754;29;8036;-62
2023/08/26 11:49:31;;;;;;;;;;;;;;;29.81;42.55;94045.19;4914235;29;9387;-62
2023/08/26 11:52:16;;;;;;;;;;;;;;;29.81;42.04;94028.56;4943227;28;8805;-62
2023/08/26 11:54:43;;;;;;;;;;;;;;;29.81;42.10;94023.00;4996236;28;6950;-62
2023/08/26 11:57:14;;;;;;;;;;;;;;;29.83;42.50;94025.22;4996048;28;6991;-62
2023/08/26 11:59:43;;;;;;;;;;;;;;;29.83;42.17;94022.47;4993125;28;9110;-63
2023/08/26 12:02:31;;;;;;;;;;;;;;;29.82;42.41;94018.22;4991093;28;9377;-62
2023/08/26 12:05:18;;;;;;;;;;;;;;;29.77;42.24;94006.00;5006696;28;7203;-63
2023/08/26 12:07:50;;;;;;;;;;;;;;;29.83;41.57;94014.13;4995496;28;7467;-64
2023/08/26 12:10:40;;;;;;;;;;;;;;;29.86;41.35;94008.25;4997833;28;9015;-63
2023/08/26 12:13:09;;;;;;;;;;;;;;;29.91;42.17;94009.34;5009758;28;7516;-64
2023/08/26 12:15:41;;;;;;;;;;;;;;;29.89;41.50;93996.06;4991450;28;7424;-63
2023/08/26 12:18:11;;;;;;;;;;;;;;;29.90;41.42;93997.53;4995964;28;6991;-64
2023/08/26 12:20:42;;;;;;;;;;;;;;;29.92;41.24;94006.06;4986920;28;9038;-63
2023/08/26 12:23:21;;;;;;;;;;;;;;;29.90;42.16;94022.50;4992610;28;7451;-63
2023/08/26 12:25:47;;;;;;;;;;;;;;;29.88;42.03;94025.09;5007445;28;9183;-63
2023/08/26 12:28:53;;;;;;;;;;;;;;;29.90;41.34;94028.06;5021547;28;9081;-63
2023/08/26 12:31:20;;;;;;;;;;;;;;;29.89;42.44;94039.66;5006470;28;9253;-63
2023/08/26 12:33:48;;;;;;;;;;;;;;;29.91;41.46;94051.69;4991973;28;6983;-63
2023/08/26 12:36:21;;;;;;;;;;;;;;;29.90;42.36;94049.47;5000408;28;7189;-63
2023/08/26 12:38:49;;;;;;;;;;;;;;;29.89;42.05;94068.16;5011412;28;9116;-64
2023/08/26 12:41:20;;;;;;;;;;;;;;;29.88;41.69;94077.78;4994885;28;7218;-63
2023/08/26 12:44:07;;;;;;;;;;;;;;;29.87;41.85;94075.53;5001478;28;9169;-63
2023/08/26 12:46:47;;;;;;;;;;;;;;;29.90;41.72;94061.31;4978680;28;9131;-66
2023/08/26 12:49:26;;;;;;;;;;;;;;;29.91;42.52;94051.69;4986998;28;7199;-64
2023/08/26 12:52:23;;;;;;;;;;;;;;;29.89;41.33;94040.41;4994522;28;7245;-66
2023/08/26 12:54:51;;;;;;;;;;;;;;;29.87;41.75;94062.41;4969046;28;9436;-65
2023/08/26 12:57:28;;;;;;;;;;;;;;;29.84;41.54;94071.81;4952585;28;9073;-64
2023/08/26 13:00:24;;;;;;;;;;;;;;;29.85;41.90;94081.63;4958207;28;7270;-64
2023/08/26 13:03:01;;;;;;;;;;;;;;;29.82;41.57;94077.16;4877516;29;7210;-64
2023/08/26 13:05:59;;;;;;;;;;;;;;;29.86;41.26;94072.03;4879951;29;6998;-64
2023/08/26 13:08:35;;;;;;;;;;;;;;;29.84;42.15;94055.16;4879959;29;8812;-64
2023/08/26 13:11:02;;;;;;;;;;;;;;;29.85;42.19;94056.66;4879622;29;7502;-64
2023/08/26 13:13:37;;;;;;;;;;;;;;;29.84;42.17;94048.91;4889235;29;8238;-66
2023/08/26 13:16:20;;;;;;;;;;;;;;;29.84;42.34;94049.63;4870497;29;9054;-66
2023/08/26 13:18:46;;;;;;;;;;;;;;;29.82;42.29;94043.88;4879063;29;8485;-67
2023/08/26 13:21:17;;;;;;;;;;;;;;;29.81;42.42;94050.75;4887647;29;7223;-66
2023/08/26 13:23:44;;;;;;;;;;;;;;;29.80;42.11;94054.78;4876686;29;7327;-66
2023/08/26 13:26:09;;;;;;;;;;;;;;;29.83;41.54;94064.78;4877889;29;8433;-64
2023/08/26 13:28:35;;;;;;;;;;;;;;;29.82;41.74;94057.03;4875830;29;6974;-65
2023/08/26 13:31:02;;;;;;;;;;;;;;;29.82;41.43;94063.28;4883855;29;7209;-64
2023/08/26 13:33:28;;;;;;;;;;;;;;;29.82;42.05;94063.28;4921863;29;9111;-65
2023/08/26 13:35:55;;;;;;;;;;;;;;;29.82;42.18;94054.97;4909152;29;7179;-65
2023/08/26 13:38:26;;;;;;;;;;;;;;;29.82;42.56;94043.16;4918819;28;8991;-65
2023/08/26 13:40:56;;;;;;;;;;;;;;;29.83;41.61;94037.06;4988486;28;7124;-65
2023/08/26 13:43:22;;;;;;;;;;;;;;;29.83;41.46;94019.69;4993683;28;7270;-65